createdAt,value
2018-03-01T00:02:18.904Z,53.50
2018-03-01T00:04:46.360Z,53.70
2018-03-01T00:07:14.250Z,53.90
2018-03-01T00:09:41.840Z,53.70
2018-03-01T00:12:09.284Z,54.10
2018-03-01T00:14:36.839Z,54.00
2018-03-01T00:17:07.118Z,54.00
2018-03-01T00:19:34.578Z,53.80
2018-03-01T00:22:02.381Z,53.70
2018-03-01T00:24:29.842Z,53.60
2018-03-01T00:26:58.169Z,53.80
2018-03-01T00:29:25.936Z,53.80
2018-03-01T00:31:53.408Z,53.70
2018-03-01T00:34:21.665Z,54.00
2018-03-01T00:36:49.267Z,53.90
2018-03-01T00:39:16.747Z,53.90
2018-03-01T00:41:50.616Z,54.00
2018-03-01T00:44:18.140Z,54.00
2018-03-01T00:46:45.663Z,54.00
2018-03-01T00:49:18.301Z,54.00
2018-03-01T00:51:45.916Z,54.00
2018-03-01T00:54:13.398Z,54.30
2018-03-01T00:56:40.983Z,54.20
2018-03-01T00:59:08.610Z,54.10
2018-03-01T01:01:36.052Z,53.90
2018-03-01T01:04:07.667Z,54.10
2018-03-01T01:09:09.238Z,54.00
2018-03-01T01:11:36.756Z,54.00
2018-03-01T01:14:04.218Z,54.00
2018-03-01T01:16:31.708Z,54.50
2018-03-01T01:18:59.180Z,53.90
2018-03-01T01:21:28.109Z,53.70
2018-03-01T01:23:55.567Z,53.70
2018-03-01T01:26:23.022Z,53.80
2018-03-01T01:28:50.480Z,53.70
2018-03-01T01:31:17.953Z,53.60
2018-03-01T01:33:45.442Z,53.70
2018-03-01T01:36:13.641Z,53.90
2018-03-01T01:38:41.129Z,53.90
2018-03-01T01:41:08.703Z,54.00
2018-03-01T01:43:36.148Z,54.10
2018-03-01T01:46:03.642Z,54.40
2018-03-01T01:48:31.092Z,54.10
2018-03-01T01:51:03.976Z,54.20
2018-03-01T01:53:32.968Z,54.50
2018-03-01T01:56:01.203Z,55.10
2018-03-01T01:58:32.819Z,54.50
2018-03-01T02:01:00.587Z,54.40
2018-03-01T02:03:28.052Z,54.10
2018-03-01T02:05:55.517Z,54.30
2018-03-01T02:08:22.974Z,54.60
2018-03-01T02:10:50.442Z,54.50
2018-03-01T02:13:17.984Z,54.40
2018-03-01T02:15:45.477Z,54.70
2018-03-01T02:18:12.932Z,54.70
2018-03-01T02:20:40.467Z,54.50
2018-03-01T02:23:08.718Z,54.20
2018-03-01T02:25:36.918Z,54.70
2018-03-01T02:28:04.396Z,54.60
2018-03-01T02:30:31.870Z,54.60
2018-03-01T02:32:59.328Z,54.80
2018-03-01T02:35:26.824Z,54.70
2018-03-01T02:37:54.303Z,54.60
2018-03-01T02:40:21.855Z,54.50
2018-03-01T02:45:23.197Z,54.60
2018-03-01T02:47:50.670Z,54.60
2018-03-01T02:50:18.112Z,54.40
2018-03-01T02:52:45.596Z,54.60
2018-03-01T02:55:13.055Z,54.60
2018-03-01T02:57:40.556Z,54.70
2018-03-01T03:00:08.792Z,55.20
2018-03-01T03:02:36.328Z,55.20
2018-03-01T03:05:03.787Z,55.50
2018-03-01T03:07:31.445Z,55.50
2018-03-01T03:09:58.927Z,55.60
2018-03-01T03:12:26.387Z,56.20
2018-03-01T03:14:53.861Z,55.50
2018-03-01T03:17:21.307Z,55.10
2018-03-01T03:19:48.847Z,55.50
2018-03-01T03:22:16.308Z,55.90
2018-03-01T03:24:43.791Z,55.90
2018-03-01T03:27:11.225Z,55.70
2018-03-01T03:29:38.706Z,55.80
2018-03-01T03:32:06.151Z,55.50
2018-03-01T03:34:33.624Z,55.80
2018-03-01T03:37:01.851Z,56.00
2018-03-01T03:39:29.291Z,56.00
2018-03-01T03:41:56.763Z,56.10
2018-03-01T03:44:24.220Z,56.00
2018-03-01T03:46:51.793Z,56.10
2018-03-01T03:49:19.235Z,56.10
2018-03-01T03:51:46.856Z,55.90
2018-03-01T03:54:14.353Z,55.90
2018-03-01T03:56:41.925Z,56.00
2018-03-01T03:59:09.360Z,56.10
2018-03-01T04:01:36.816Z,56.00
2018-03-01T04:04:04.308Z,56.20
2018-03-01T04:06:31.771Z,56.20
2018-03-01T04:09:00.000Z,56.10
2018-03-01T04:11:27.498Z,56.00
2018-03-01T04:13:54.933Z,56.30
2018-03-01T04:16:22.402Z,56.90
2018-03-01T04:18:49.931Z,56.20
2018-03-01T04:21:17.395Z,56.30
2018-03-01T04:23:44.867Z,56.40
2018-03-01T04:26:12.331Z,56.40
2018-03-01T04:28:40.559Z,56.30
2018-03-01T04:31:08.019Z,56.30
2018-03-01T04:33:35.527Z,56.40
2018-03-01T04:36:03.006Z,56.60
2018-03-01T04:38:30.440Z,56.50
2018-03-01T04:40:57.879Z,56.50
2018-03-01T04:43:25.350Z,57.00
2018-03-01T04:45:52.888Z,56.80
2018-03-01T04:48:20.360Z,57.20
2018-03-01T04:50:47.817Z,57.00
2018-03-01T04:53:15.283Z,56.90
2018-03-01T04:55:43.526Z,56.90
2018-03-01T04:58:10.980Z,56.80
2018-03-01T05:00:38.426Z,56.60
2018-03-01T05:03:06.001Z,56.70
2018-03-01T05:05:33.433Z,56.70
2018-03-01T05:08:00.914Z,56.60
2018-03-01T05:10:28.386Z,56.70
2018-03-01T05:12:55.830Z,56.60
2018-03-01T05:15:23.355Z,56.60
2018-03-01T05:17:50.804Z,56.60
2018-03-01T05:20:18.277Z,56.80
2018-03-01T05:22:49.760Z,56.90
2018-03-01T05:25:17.226Z,56.90
2018-03-01T05:27:45.544Z,57.00
2018-03-01T05:30:13.007Z,57.00
2018-03-01T05:32:40.670Z,56.70
2018-03-01T05:35:08.115Z,56.60
2018-03-01T05:37:35.572Z,56.70
2018-03-01T05:40:03.136Z,56.80
2018-03-01T05:42:30.674Z,56.70
2018-03-01T05:44:58.132Z,56.70
2018-03-01T05:47:25.605Z,56.70
2018-03-01T05:49:53.088Z,56.70
2018-03-01T05:52:20.549Z,56.60
2018-03-01T05:54:47.991Z,56.60
2018-03-01T05:57:15.453Z,56.50
2018-03-01T05:59:42.917Z,56.40
2018-03-01T06:02:10.388Z,56.40
2018-03-01T06:04:37.852Z,56.40
2018-03-01T06:07:06.072Z,56.50
2018-03-01T06:09:33.523Z,56.40
2018-03-01T06:12:00.986Z,56.50
2018-03-01T06:14:28.455Z,56.50
2018-03-01T06:16:55.931Z,56.40
2018-03-01T06:19:23.398Z,56.50
2018-03-01T06:21:50.880Z,56.50
2018-03-01T06:24:18.360Z,56.20
2018-03-01T06:26:45.972Z,56.20
2018-03-01T06:29:13.430Z,56.30
2018-03-01T06:31:40.862Z,57.00
2018-03-01T06:34:08.394Z,56.30
2018-03-01T06:36:35.984Z,56.10
2018-03-01T06:39:03.455Z,56.20
2018-03-01T06:41:30.912Z,55.90
2018-03-01T06:43:59.199Z,55.60
2018-03-01T06:46:26.616Z,55.60
2018-03-01T06:48:54.102Z,55.50
2018-03-01T06:51:22.353Z,55.50
2018-03-01T06:53:49.818Z,55.50
2018-03-01T06:56:17.252Z,55.30
2018-03-01T06:58:44.724Z,55.20
2018-03-01T07:01:12.202Z,55.10
2018-03-01T07:03:39.760Z,55.00
2018-03-01T07:06:07.214Z,55.20
2018-03-01T07:08:40.176Z,54.50
2018-03-01T07:20:53.901Z,54.50
2018-03-01T07:23:22.168Z,53.80
2018-03-01T07:25:49.630Z,53.80
2018-03-01T07:28:17.846Z,53.40
2018-03-01T07:30:46.040Z,53.40
2018-03-01T07:33:14.036Z,53.10
2018-03-01T07:35:42.275Z,52.30
2018-03-01T07:38:09.799Z,52.70
2018-03-01T07:40:37.275Z,52.50
2018-03-01T07:43:04.740Z,52.90
2018-03-01T07:45:32.258Z,52.10
2018-03-01T07:47:59.671Z,52.00
2018-03-01T07:50:27.147Z,51.80
2018-03-01T07:52:54.616Z,51.00
2018-03-01T07:55:22.835Z,50.20
2018-03-01T07:57:50.314Z,50.20
2018-03-01T08:00:17.774Z,49.40
2018-03-01T08:02:45.255Z,49.50
2018-03-01T08:05:12.696Z,49.30
2018-03-01T08:07:40.164Z,49.70
2018-03-01T08:10:08.390Z,49.40
2018-03-01T08:12:35.860Z,49.40
2018-03-01T08:15:03.355Z,49.40
2018-03-01T08:17:30.811Z,49.30
2018-03-01T08:19:58.399Z,48.60
2018-03-01T08:22:26.593Z,48.00
2018-03-01T08:24:54.340Z,48.00
2018-03-01T08:27:21.807Z,47.10
2018-03-01T08:29:50.116Z,46.50
2018-03-01T08:32:22.580Z,46.20
2018-03-01T08:34:50.047Z,45.50
2018-03-01T08:37:17.491Z,45.00
2018-03-01T08:39:44.958Z,44.30
2018-03-01T08:42:12.403Z,43.10
2018-03-01T08:44:39.878Z,42.50
2018-03-01T08:47:07.375Z,50.40
2018-03-01T08:49:34.867Z,42.50
2018-03-01T08:52:02.327Z,41.20
2018-03-01T08:57:19.054Z,41.70
2018-03-01T08:59:46.513Z,42.90
2018-03-01T09:02:17.812Z,43.20
2018-03-01T09:05:02.762Z,43.80
2018-03-01T09:07:30.667Z,44.10
2018-03-01T09:10:14.639Z,44.20
2018-03-01T09:12:43.234Z,43.90
2018-03-01T09:15:10.838Z,42.40
2018-03-01T09:17:42.929Z,40.50
2018-03-01T09:20:14.429Z,39.70
2018-03-01T09:22:42.690Z,38.20
2018-03-01T09:25:14.302Z,37.70
2018-03-01T09:28:09.723Z,35.80
2018-03-01T09:30:39.819Z,34.80
2018-03-01T09:33:09.142Z,34.40
2018-03-01T09:35:40.668Z,34.40
2018-03-01T09:38:08.157Z,34.50
2018-03-01T09:40:36.461Z,34.10
2018-03-01T09:43:05.830Z,33.90
2018-03-01T09:45:33.290Z,33.90
2018-03-01T09:48:00.754Z,33.30
2018-03-01T09:50:28.194Z,33.70
2018-03-01T09:52:56.226Z,33.10
2018-03-01T09:55:23.702Z,33.50
2018-03-01T09:57:51.144Z,34.00
2018-03-01T10:00:18.643Z,32.70
2018-03-01T10:05:54.909Z,30.80
2018-03-01T10:08:22.376Z,30.80
2018-03-01T10:10:50.672Z,31.00
2018-03-01T10:13:18.247Z,31.00
2018-03-01T10:15:50.470Z,30.60
2018-03-01T10:18:18.504Z,30.60
2018-03-01T10:20:46.004Z,30.00
2018-03-01T10:23:13.458Z,30.10
2018-03-01T10:25:40.919Z,30.30
2018-03-01T10:28:09.260Z,30.50
2018-03-01T10:30:36.938Z,30.30
2018-03-01T10:33:04.396Z,30.70
2018-03-01T10:35:31.956Z,30.70
2018-03-01T10:37:59.444Z,29.80
2018-03-01T10:40:26.944Z,29.50
2018-03-01T10:42:54.399Z,30.50
2018-03-01T10:45:22.023Z,30.20
2018-03-01T10:47:53.639Z,30.30
2018-03-01T10:50:21.129Z,31.60
2018-03-01T10:52:48.651Z,31.20
2018-03-01T10:55:16.120Z,30.90
2018-03-01T10:57:43.555Z,30.70
2018-03-01T11:00:11.035Z,30.40
2018-03-01T11:02:38.497Z,30.00
2018-03-01T11:05:06.024Z,30.00
2018-03-01T11:07:33.511Z,30.10
2018-03-01T11:10:01.059Z,29.90
2018-03-01T11:12:28.519Z,29.70
2018-03-01T11:14:56.827Z,29.70
2018-03-01T11:17:24.475Z,29.70
2018-03-01T11:19:51.899Z,30.00
2018-03-01T11:22:24.080Z,30.60
2018-03-01T11:24:51.524Z,30.20
2018-03-01T11:27:23.871Z,29.90
2018-03-01T11:29:51.354Z,29.40
2018-03-01T11:32:18.817Z,29.30
2018-03-01T11:34:50.399Z,29.40
2018-03-01T11:37:17.847Z,29.00
2018-03-01T11:39:47.731Z,29.30
2018-03-01T11:45:08.160Z,28.90
2018-03-01T11:47:36.538Z,29.50
2018-03-01T11:53:06.361Z,29.70
2018-03-01T11:55:33.819Z,29.80
2018-03-01T11:58:01.293Z,29.50
2018-03-01T12:00:29.544Z,29.50
2018-03-01T12:02:56.996Z,29.50
2018-03-01T12:05:24.485Z,29.70
2018-03-01T12:08:00.813Z,29.70
2018-03-01T12:10:28.312Z,29.30
2018-03-01T12:12:55.727Z,28.50
2018-03-01T12:15:23.201Z,28.90
2018-03-01T12:17:50.664Z,29.50
2018-03-01T12:20:18.120Z,29.40
2018-03-01T12:22:45.564Z,29.00
2018-03-01T12:25:13.021Z,29.10
2018-03-01T12:27:40.516Z,28.90
2018-03-01T12:30:12.246Z,29.30
2018-03-01T12:32:39.695Z,29.30
2018-03-01T12:35:07.375Z,29.10
2018-03-01T12:37:35.582Z,28.90
2018-03-01T12:40:03.037Z,28.80
2018-03-01T12:42:30.495Z,29.10
2018-03-01T12:44:58.027Z,29.50
2018-03-01T12:47:25.588Z,29.60
2018-03-01T12:49:53.036Z,29.20
2018-03-01T12:52:20.495Z,29.10
2018-03-01T12:54:48.921Z,28.60
2018-03-01T12:57:17.367Z,28.90
2018-03-01T12:59:44.933Z,28.90
2018-03-01T13:02:12.428Z,28.70
2018-03-01T13:04:40.688Z,28.90
2018-03-01T13:07:08.202Z,28.90
2018-03-01T13:09:35.700Z,28.50
2018-03-01T13:12:03.190Z,28.50
2018-03-01T13:14:30.632Z,28.50
2018-03-01T13:16:58.760Z,28.60
2018-03-01T13:19:26.258Z,28.80
2018-03-01T13:21:53.728Z,29.20
2018-03-01T13:24:21.235Z,28.90
2018-03-01T13:26:49.279Z,28.40
2018-03-01T13:29:17.690Z,28.20
2018-03-01T13:31:47.656Z,28.20
2018-03-01T13:34:20.788Z,28.40
2018-03-01T13:36:48.379Z,28.20
2018-03-01T13:39:15.869Z,28.30
2018-03-01T13:41:43.306Z,28.90
2018-03-01T13:44:10.795Z,29.40
2018-03-01T13:46:39.074Z,29.00
2018-03-01T13:49:06.558Z,28.90
2018-03-01T13:51:34.116Z,28.50
2018-03-01T13:54:01.610Z,28.70
2018-03-01T13:56:29.132Z,28.90
2018-03-01T13:58:56.600Z,29.40
2018-03-01T14:01:24.238Z,29.10
2018-03-01T14:03:52.584Z,29.30
2018-03-01T14:09:10.335Z,29.70
2018-03-01T14:11:38.535Z,29.10
2018-03-01T14:14:06.908Z,29.10
2018-03-01T14:16:34.348Z,29.30
2018-03-01T14:19:18.428Z,29.70
2018-03-01T14:21:50.326Z,29.70
2018-03-01T14:27:39.213Z,29.70
2018-03-01T14:30:10.166Z,29.70
2018-03-01T14:32:37.701Z,29.80
2018-03-01T14:35:05.164Z,30.10
2018-03-01T14:37:33.448Z,30.00
2018-03-01T14:40:00.893Z,30.00
2018-03-01T14:42:28.379Z,30.50
2018-03-01T14:44:56.571Z,30.10
2018-03-01T14:47:24.080Z,30.10
2018-03-01T14:49:51.570Z,30.70
2018-03-01T14:52:19.764Z,31.80
2018-03-01T14:54:47.202Z,31.60
2018-03-01T14:57:14.662Z,31.50
2018-03-01T14:59:42.128Z,31.90
2018-03-01T15:02:09.600Z,31.70
2018-03-01T15:04:37.047Z,31.50
2018-03-01T15:07:04.499Z,31.60
2018-03-01T15:09:31.937Z,31.90
2018-03-01T15:11:59.443Z,32.90
2018-03-01T15:14:27.608Z,31.80
2018-03-01T15:16:55.058Z,32.40
2018-03-01T15:19:23.307Z,32.90
2018-03-01T15:21:50.768Z,32.90
2018-03-01T15:24:18.314Z,32.80
2018-03-01T15:26:45.760Z,32.90
2018-03-01T15:29:13.245Z,33.10
2018-03-01T15:31:40.704Z,33.30
2018-03-01T15:34:09.056Z,33.40
2018-03-01T15:36:36.494Z,33.50
2018-03-01T15:39:04.755Z,33.40
2018-03-01T15:41:32.193Z,33.40
2018-03-01T15:43:59.715Z,33.70
2018-03-01T15:46:27.199Z,33.80
2018-03-01T15:48:58.628Z,34.00
2018-03-01T15:51:31.445Z,33.90
2018-03-01T15:53:59.708Z,34.10
2018-03-01T15:56:27.235Z,34.10
2018-03-01T15:58:54.694Z,34.30
2018-03-01T16:01:22.181Z,34.90
2018-03-01T16:03:49.634Z,34.60
2018-03-01T16:06:20.165Z,34.70
2018-03-01T16:08:47.687Z,34.70
2018-03-01T16:11:15.155Z,34.70
2018-03-01T16:13:42.600Z,34.90
2018-03-01T16:16:10.609Z,34.60
2018-03-01T16:18:38.046Z,34.70
2018-03-01T16:21:05.810Z,35.10
2018-03-01T16:23:33.296Z,35.30
2018-03-01T16:26:01.584Z,35.20
2018-03-01T16:28:29.032Z,35.20
2018-03-01T16:30:56.499Z,35.20
2018-03-01T16:33:24.012Z,35.20
2018-03-01T16:35:51.517Z,35.40
2018-03-01T16:38:19.041Z,35.40
2018-03-01T16:40:46.505Z,35.60
2018-03-01T16:43:14.000Z,35.60
2018-03-01T16:45:41.608Z,35.50
2018-03-01T16:48:09.089Z,35.70
2018-03-01T16:50:37.324Z,35.70
2018-03-01T16:53:04.814Z,35.70
2018-03-01T16:55:33.044Z,36.00
2018-03-01T16:58:00.527Z,35.90
2018-03-01T17:00:28.091Z,35.80
2018-03-01T17:02:55.548Z,35.90
2018-03-01T17:05:23.051Z,36.20
2018-03-01T17:07:50.530Z,36.30
2018-03-01T17:10:18.013Z,36.20
2018-03-01T17:12:45.473Z,36.10
2018-03-01T17:15:12.930Z,36.30
2018-03-01T17:17:40.367Z,36.20
2018-03-01T17:20:08.313Z,36.40
2018-03-01T17:22:35.749Z,36.40
2018-03-01T17:25:11.844Z,36.60
2018-03-01T17:27:39.348Z,36.50
2018-03-01T17:30:08.366Z,36.70
2018-03-01T17:32:35.871Z,36.70
2018-03-01T17:35:03.328Z,36.70
2018-03-01T17:37:31.116Z,36.70
2018-03-01T17:39:58.540Z,36.80
2018-03-01T17:42:26.055Z,37.00
2018-03-01T17:44:53.607Z,37.00
2018-03-01T17:47:21.112Z,37.00
2018-03-01T17:49:48.534Z,37.20
2018-03-01T17:52:16.023Z,37.30
2018-03-01T17:54:43.483Z,37.60
2018-03-01T17:57:10.960Z,37.70
2018-03-01T17:59:39.205Z,37.90
2018-03-01T18:02:06.674Z,37.90
2018-03-01T18:04:34.150Z,37.90
2018-03-01T18:07:02.294Z,38.00
2018-03-01T18:09:29.768Z,38.00
2018-03-01T18:12:04.559Z,37.80
2018-03-01T18:14:32.073Z,38.60
2018-03-01T18:16:59.515Z,38.20
2018-03-01T18:19:31.149Z,38.00
2018-03-01T18:21:58.594Z,38.10
2018-03-01T18:24:26.097Z,38.20
2018-03-01T18:26:53.592Z,38.30
2018-03-01T18:29:27.226Z,38.30
2018-03-01T18:31:54.713Z,38.50
2018-03-01T18:34:22.230Z,38.50
2018-03-01T18:36:49.700Z,38.40
2018-03-01T18:39:34.104Z,38.60
2018-03-01T18:42:01.574Z,38.60
2018-03-01T18:44:29.058Z,38.70
2018-03-01T18:46:56.571Z,38.70
2018-03-01T18:49:27.901Z,38.60
2018-03-01T18:51:56.134Z,39.00
2018-03-01T18:54:23.599Z,39.00
2018-03-01T18:56:51.458Z,39.00
2018-03-01T18:59:18.952Z,39.00
2018-03-01T19:01:46.420Z,39.00
2018-03-01T19:04:13.898Z,39.00
2018-03-01T19:06:41.468Z,39.00
2018-03-01T19:09:08.924Z,39.20
2018-03-01T19:11:36.387Z,39.30
2018-03-01T19:14:03.917Z,39.30
2018-03-01T19:16:32.203Z,39.90
2018-03-01T19:19:15.571Z,39.30
2018-03-01T19:21:56.436Z,39.40
2018-03-01T19:24:23.898Z,38.70
2018-03-01T19:26:52.139Z,38.90
2018-03-01T19:29:19.665Z,38.90
2018-03-01T19:31:47.124Z,38.50
2018-03-01T19:34:14.584Z,38.30
2018-03-01T19:36:42.071Z,38.50
2018-03-01T19:39:09.543Z,38.50
2018-03-01T19:41:37.003Z,38.80
2018-03-01T19:44:04.507Z,38.80
2018-03-01T19:46:31.983Z,38.90
2018-03-01T19:48:59.491Z,38.50
2018-03-01T19:51:27.038Z,38.70
2018-03-01T19:53:54.487Z,39.00
2018-03-01T19:56:21.994Z,39.00
2018-03-01T19:58:49.457Z,39.20
2018-03-01T20:01:17.073Z,39.00
2018-03-01T20:03:44.496Z,39.10
2018-03-01T20:06:12.212Z,39.40
2018-03-01T20:08:39.680Z,39.20
2018-03-01T20:11:07.169Z,39.30
2018-03-01T20:13:34.731Z,39.50
2018-03-01T20:16:06.783Z,39.60
2018-03-01T20:18:34.260Z,39.70
2018-03-01T20:21:01.736Z,39.60
2018-03-01T20:23:30.042Z,39.60
2018-03-01T20:25:58.281Z,39.50
2018-03-01T20:28:25.879Z,39.60
2018-03-01T20:30:53.332Z,39.90
2018-03-01T20:33:20.819Z,40.00
2018-03-01T20:35:48.319Z,40.00
2018-03-01T20:38:15.775Z,41.20
2018-03-01T20:40:43.345Z,40.20
2018-03-01T20:43:11.564Z,40.20
2018-03-01T20:45:39.064Z,40.20
2018-03-01T20:48:06.535Z,40.30
2018-03-01T20:50:34.013Z,40.60
2018-03-01T20:53:01.547Z,40.80
2018-03-01T20:55:29.852Z,40.80
2018-03-01T20:57:57.297Z,40.80
2018-03-01T21:00:24.747Z,40.80
2018-03-01T21:02:52.206Z,41.00
2018-03-01T21:05:19.702Z,41.20
2018-03-01T21:07:47.132Z,41.00
2018-03-01T21:10:14.623Z,41.30
2018-03-01T21:12:42.059Z,41.60
2018-03-01T21:15:09.572Z,41.80
2018-03-01T21:17:37.036Z,41.60
2018-03-01T21:20:04.510Z,41.90
2018-03-01T21:22:32.055Z,42.10
2018-03-01T21:25:10.581Z,42.20
2018-03-01T21:27:38.128Z,42.50
2018-03-01T21:30:05.611Z,42.30
2018-03-01T21:32:33.079Z,42.50
2018-03-01T21:35:00.613Z,42.80
2018-03-01T21:37:28.081Z,43.30
2018-03-01T21:39:55.579Z,43.30
2018-03-01T21:42:33.833Z,43.40
2018-03-01T21:45:01.511Z,43.10
2018-03-01T21:47:28.980Z,43.00
2018-03-01T21:49:56.436Z,43.10
2018-03-01T21:52:24.677Z,42.90
2018-03-01T21:54:52.147Z,42.80
2018-03-01T21:57:19.632Z,43.20
2018-03-01T21:59:47.120Z,43.30
2018-03-01T22:02:15.380Z,43.50
2018-03-01T22:04:42.824Z,43.40
2018-03-01T22:07:10.354Z,43.60
2018-03-01T22:09:37.862Z,43.20
2018-03-01T22:12:06.755Z,43.30
2018-03-01T22:14:35.028Z,43.10
2018-03-01T22:17:03.252Z,43.40
2018-03-01T22:19:30.759Z,43.40
2018-03-01T22:22:02.627Z,43.40
2018-03-01T22:24:30.154Z,43.20
2018-03-01T22:26:57.606Z,43.10
2018-03-01T22:29:29.022Z,43.50
2018-03-01T22:32:01.247Z,43.30
2018-03-01T22:34:29.360Z,43.10
2018-03-01T22:37:11.576Z,43.10
2018-03-01T22:42:24.771Z,43.30
2018-03-01T22:44:52.996Z,43.50
2018-03-01T22:47:21.673Z,43.50
2018-03-01T22:49:50.505Z,43.70
2018-03-01T22:52:24.209Z,43.70
2018-03-01T22:54:51.708Z,43.70
2018-03-01T22:57:23.152Z,43.50
2018-03-01T22:59:50.768Z,43.70
2018-03-01T23:02:18.869Z,43.90
2018-03-01T23:04:47.128Z,44.00
2018-03-01T23:07:14.688Z,43.90
2018-03-01T23:09:49.350Z,44.10
2018-03-01T23:12:22.655Z,44.20
2018-03-01T23:14:52.705Z,44.70
2018-03-01T23:17:24.448Z,44.70
2018-03-01T23:19:55.869Z,44.50
2018-03-01T23:22:23.342Z,44.80
2018-03-01T23:24:52.453Z,45.00
2018-03-01T23:27:21.632Z,45.00
2018-03-01T23:29:55.757Z,44.70
2018-03-01T23:32:23.220Z,44.80
2018-03-01T23:34:54.735Z,44.80
2018-03-01T23:37:22.230Z,45.10
2018-03-01T23:39:50.127Z,45.20
2018-03-01T23:42:18.407Z,45.10
2018-03-01T23:44:46.021Z,45.10
2018-03-01T23:47:13.498Z,45.10
2018-03-01T23:49:41.075Z,45.20
2018-03-01T23:52:08.600Z,45.50
2018-03-01T23:54:36.626Z,45.60
2018-03-01T23:57:04.253Z,45.80
2018-03-01T23:59:35.711Z,45.90
